Advantage Pretty — V7TX4 — position and weather

sailwx.info

Track history (hours):
 
Tides and Currents Weather Stations Pressure Air Temp Water Temp Dewpoint Dewpoint Depression Visibility Wind Speed Wind Dir Waves Ship Positions

Advantage Pretty

Last reported at 2018-Jul-20 08:00 UTC. Time now 2018-Jul-20 08:09 UTC.
Position N 28°33' W 015°15'.

Length 183 m; draft 8 m.

Type: Tanker. MMSI: 538007535.

Date/timePositionNaut miles runAvg speedWind from/ knotsBaromVisibWave heightAir tempDewpointWater temp
2018-Jul-20 08:00N 28°33' W 015°15'1 1.9
2018-Jul-20 07:30N 28°34' W 015°15'1 1.9
2018-Jul-20 07:00N 28°34' W 015°15'1 1.8
2018-Jul-20 06:30N 28°35' W 015°15'1 1.3
2018-Jul-20 06:00N 28°35' W 015°16'5 9.2
2018-Jul-20 05:30N 28°31' W 015°19'5 9.4
2018-Jul-20 05:00N 28°28' W 015°22'3 6.0
2018-Jul-20 04:30N 28°25' W 015°23'1 1.5
2018-Jul-20 03:59N 28°25' W 015°22'1 1.6
2018-Jul-20 03:30N 28°25' W 015°21'1 1.6
2018-Jul-20 03:00N 28°25' W 015°20'1 1.6
2018-Jul-20 02:31N 28°26' W 015°20'1 1.5
2018-Jul-20 02:01N 28°26' W 015°19'1 1.4
2018-Jul-20 01:30N 28°26' W 015°18'1 1.4
2018-Jul-20 01:00N 28°27' W 015°17'1 1.5
2018-Jul-20 00:30N 28°27' W 015°17'1 1.5
2018-Jul-20 00:01N 28°27' W 015°16'0 0.5
2018-Jul-19 23:31N 28°27' W 015°16'4 7.7
2018-Jul-19 23:01N 28°23' W 015°16'2 4.1
2018-Jul-19 22:30N 28°21' W 015°15'2 4.9
2018-Jul-19 22:00N 28°19' W 015°16'612.4
2018-Jul-19 21:30N 28°13' W 015°19'612.6
2018-Jul-19 21:00N 28°08' W 015°22'2 4.3
2018-Jul-19 20:30N 28°08' W 015°25'0 0.3
2018-Jul-19 19:59N 28°08' W 015°25'0 0.0
2018-Jul-19 19:29N 28°08' W 015°25'0 0.0
2018-Jul-19 18:59N 28°08' W 015°25'0 0.0
2018-Jul-19 18:29N 28°08' W 015°25'0 0.0
2018-Jul-19 17:59N 28°08' W 015°25'0 0.0
2018-Jul-19 17:29N 28°08' W 015°25'0 0.0
2018-Jul-19 16:50N 28°08' W 015°25'0 0.0
2018-Jul-19 16:20N 28°08' W 015°25'0 0.0
2018-Jul-19 15:53N 28°08' W 015°25'0 0.0
2018-Jul-19 15:23N 28°08' W 015°25'0 0.0
2018-Jul-19 14:53N 28°08' W 015°25'0 0.0
2018-Jul-19 13:53N 28°08' W 015°25'0 0.0
2018-Jul-19 13:05N 28°08' W 015°25'0 0.0
2018-Jul-19 12:50N 28°08' W 015°25'0 0.0
2018-Jul-19 12:26N 28°08' W 015°25'0 0.0
2018-Jul-19 11:53N 28°08' W 015°25'0 0.0
2018-Jul-19 11:26N 28°08' W 015°25'0 0.0
2018-Jul-19 10:53N 28°08' W 015°25'0 0.0
2018-Jul-19 10:26N 28°08' W 015°25'0 0.0
2018-Jul-19 09:59N 28°08' W 015°25'0 0.0
2018-Jul-19 09:29N 28°08' W 015°25'0 0.0
2018-Jul-19 08:59N 28°08' W 015°25'0 0.0
2018-Jul-19 08:29N 28°08' W 015°25'0 0.0
2018-Jul-19 07:59N 28°08' W 015°25'0 0.0
2018-Jul-19 07:29N 28°08' W 015°25'0 0.0
2018-Jul-19 06:59N 28°08' W 015°25'0 0.0
2018-Jul-19 06:29N 28°08' W 015°25'0 0.0
2018-Jul-19 05:59N 28°08' W 015°25'0 0.0
2018-Jul-19 05:29N 28°08' W 015°25'0 0.0
2018-Jul-19 04:59N 28°08' W 015°25'0 0.0
2018-Jul-19 04:29N 28°08' W 015°25'0 0.0
2018-Jul-19 03:59N 28°08' W 015°25'0 0.0
2018-Jul-19 03:29N 28°08' W 015°25'0 0.0
2018-Jul-19 02:59N 28°08' W 015°25'0 0.0
2018-Jul-19 02:20N 28°08' W 015°25'0 0.0
2018-Jul-19 01:53N 28°08' W 015°25'0 0.0
2018-Jul-19 01:23N 28°08' W 015°25'0 0.0
2018-Jul-19 00:53N 28°08' W 015°25'0 0.0
2018-Jul-19 00:23N 28°08' W 015°25'0 0.0
2018-Jul-18 23:53N 28°08' W 015°25'0 0.0
2018-Jul-18 23:23N 28°08' W 015°25'0 0.0
2018-Jul-18 22:56N 28°08' W 015°25'0 0.0
2018-Jul-18 22:26N 28°08' W 015°25'0 0.0
2018-Jul-18 21:56N 28°08' W 015°25'0 0.0
2018-Jul-18 21:26N 28°08' W 015°25'0 0.0
2018-Jul-18 20:56N 28°08' W 015°25'0 0.0
2018-Jul-18 20:26N 28°08' W 015°25'0 0.0
2018-Jul-18 19:59N 28°08' W 015°25'0 0.0
2018-Jul-18 19:29N 28°08' W 015°25'0 0.0
2018-Jul-18 18:59N 28°08' W 015°25'0 0.0
2018-Jul-18 18:29N 28°08' W 015°25'0 0.0
2018-Jul-18 17:59N 28°08' W 015°25'0 0.0
2018-Jul-18 17:29N 28°08' W 015°25'0 0.0
2018-Jul-18 16:56N 28°08' W 015°25'0 0.0
2018-Jul-18 16:29N 28°08' W 015°25'0 0.0
2018-Jul-18 15:59N 28°08' W 015°25'0 0.0
2018-Jul-18 15:29N 28°08' W 015°25'0 0.0
2018-Jul-18 14:59N 28°08' W 015°25'0 0.0
2018-Jul-18 14:29N 28°08' W 015°25'0 0.0
2018-Jul-18 13:29N 28°08' W 015°25'0 0.0
2018-Jul-18 12:50N 28°08' W 015°25'0 0.0
2018-Jul-18 12:17N 28°08' W 015°25'0 0.0
2018-Jul-18 11:38N 28°08' W 015°25'0 0.0
2018-Jul-18 11:23N 28°08' W 015°25'0 0.0
2018-Jul-18 10:23N 28°08' W 015°25'0 0.0
2018-Jul-18 09:53N 28°08' W 015°25'0 0.0
2018-Jul-18 09:23N 28°08' W 015°25'0 0.0
2018-Jul-18 08:56N 28°08' W 015°25'0 0.0
2018-Jul-18 08:23N 28°08' W 015°25'0 0.0
2018-Jul-18 07:56N 28°08' W 015°25'0 0.0
2018-Jul-18 07:26N 28°08' W 015°25'0 0.0
2018-Jul-18 06:56N 28°08' W 015°25'0 0.0
2018-Jul-18 06:29N 28°08' W 015°25'0 0.0
2018-Jul-18 05:59N 28°08' W 015°25'0 0.0
2018-Jul-18 05:29N 28°08' W 015°25'0 0.0
2018-Jul-18 04:59N 28°08' W 015°25'0 0.0
2018-Jul-18 04:29N 28°08' W 015°25'0 0.0
2018-Jul-18 03:59N 28°08' W 015°25'0 0.0
2018-Jul-18 03:29N 28°08' W 015°25'0 0.0
2018-Jul-18 02:59N 28°08' W 015°25'0 0.0
2018-Jul-18 02:29N 28°08' W 015°25'0 0.0
2018-Jul-18 01:59N 28°08' W 015°25'0 0.0
2018-Jul-18 01:29N 28°08' W 015°25'0 0.0
2018-Jul-18 00:59N 28°08' W 015°25'0 0.0
2018-Jul-18 00:29N 28°08' W 015°25'0 0.0
2018-Jul-17 23:59N 28°08' W 015°25'0 0.0
2018-Jul-17 23:20N 28°08' W 015°25'0 0.0
2018-Jul-17 22:50N 28°08' W 015°25'0 0.0
2018-Jul-17 22:20N 28°08' W 015°25'0 0.0
2018-Jul-17 21:53N 28°08' W 015°25'0 0.0
2018-Jul-17 21:23N 28°08' W 015°25'0 0.0
2018-Jul-17 20:53N 28°08' W 015°25'0 0.0
2018-Jul-17 20:20N 28°08' W 015°25'0 0.0
2018-Jul-17 19:53N 28°08' W 015°25'0 0.0
2018-Jul-17 19:23N 28°08' W 015°25'0 0.0
2018-Jul-17 18:56N 28°08' W 015°25'0 0.0
2018-Jul-17 18:26N 28°08' W 015°25'0 0.0
2018-Jul-17 17:56N 28°08' W 015°25'0 0.0
2018-Jul-17 17:26N 28°08' W 015°25'0 0.9
2018-Jul-17 17:00N 28°08' W 015°25'2 3.6
2018-Jul-17 16:30N 28°07' W 015°23'1 1.0
2018-Jul-17 16:00N 28°07' W 015°23'1 1.1
2018-Jul-17 15:29N 28°08' W 015°24'0 0.0
2018-Jul-17 14:43N 28°08' W 015°24'0 0.0
2018-Jul-17 14:28N 28°08' W 015°24'0 0.0
2018-Jul-17 13:58N 28°08' W 015°24'0 0.0
2018-Jul-17 13:28N 28°08' W 015°24'0 0.0
2018-Jul-17 12:46N 28°08' W 015°24'0 0.0
2018-Jul-17 12:28N 28°08' W 015°24'0 0.0
2018-Jul-17 11:58N 28°08' W 015°24'0 0.0
2018-Jul-17 11:28N 28°08' W 015°24'0 0.0
2018-Jul-17 10:58N 28°08' W 015°24'0 0.0
2018-Jul-17 10:20N 28°08' W 015°24'0 0.0
2018-Jul-17 09:50N 28°08' W 015°24'0 0.0
2018-Jul-17 09:19N 28°08' W 015°24'0 0.0
2018-Jul-17 08:53N 28°08' W 015°24'0 0.1
2018-Jul-17 08:23N 28°08' W 015°24'0 0.1
2018-Jul-17 07:52N 28°08' W 015°24'0 0.0
2018-Jul-17 07:23N 28°08' W 015°24'0 0.0
2018-Jul-17 06:52N 28°08' W 015°24'0 0.0
2018-Jul-17 06:22N 28°08' W 015°24'0 0.0
2018-Jul-17 05:56N 28°08' W 015°24'0 0.0
2018-Jul-17 05:26N 28°08' W 015°24'0 0.0
2018-Jul-17 04:56N 28°08' W 015°24'0 0.3
2018-Jul-17 04:26N 28°08' W 015°24'1 1.2
2018-Jul-17 04:00N 28°08' W 015°23'2 4.8
2018-Jul-17 03:30N 28°10' W 015°22'3 6.1
2018-Jul-17 03:00N 28°13' W 015°21'510.9
2018-Jul-17 02:30N 28°18' W 015°19'611.5
2018-Jul-17 02:00N 28°24' W 015°18'612.2
2018-Jul-17 01:30N 28°29' W 015°16'612.4
2018-Jul-17 01:00N 28°35' W 015°14'612.3
2018-Jul-17 00:29N 28°41' W 015°12'1212.2
2018-Jul-16 23:28N 28°53' W 015°08'612.1
2018-Jul-16 23:00N 28°59' W 015°06'612.4
2018-Jul-16 22:30N 29°05' W 015°04'612.2
2018-Jul-16 22:00N 29°11' W 015°02'612.3
2018-Jul-16 21:30N 29°17' W 015°00'612.3
2018-Jul-16 21:00N 29°23' W 014°58'812.6
2018-Jul-16 20:23N 29°30' W 014°56'612.7
2018-Jul-16 19:54N 29°36' W 014°54'812.5
2018-Jul-16 19:15N 29°44' W 014°52'312.3
2018-Jul-16 18:59N 29°47' W 014°51'1912.1
2018-Jul-16 17:27N 30°05' W 014°45'612.0
2018-Jul-16 16:57N 30°11' W 014°43'  
2018-Jul-12 20:42N 46°45' W 003°23'413.2
2018-Jul-12 20:24N 46°46' W 003°17'513.5
2018-Jul-12 20:00N 46°49' W 003°10'1313.8
2018-Jul-12 19:03N 46°55' W 002°53'113.5
2018-Jul-12 19:00N 46°55' W 002°52'713.5
2018-Jul-12 18:30N 46°59' W 002°44'713.3
2018-Jul-12 18:00N 47°02' W 002°36'713.4
2018-Jul-12 17:30N 47°04' W 002°27'510.1
2018-Jul-12 17:00N 47°08' W 002°22'712.0
2018-Jul-12 16:27N 47°14' W 002°16'612.4
2018-Jul-12 16:00N 47°17' W 002°10'3 0.3
2018-Jul-12 05:29N 47°18' W 002°06'0 0.0
2018-Jul-12 04:47N 47°18' W 002°06'0 0.0
2018-Jul-12 04:11N 47°18' W 002°06'0 0.0
2018-Jul-11 03:23N 47°18' W 002°06'  
Track history (hours):
 
Tides and Currents Weather Stations Pressure Air Temp Water Temp Dewpoint Dewpoint Depression Visibility Wind Speed Wind Dir Waves Ship Positions

Advantage Pretty

Last reported at 2018-Jul-20 08:00 UTC. Time now 2018-Jul-20 08:09 UTC.
Position N 28°33' W 015°15'.

Length 183 m; draft 8 m.

Type: Tanker. MMSI: 538007535.

Date/timePositionNaut miles runAvg speedWind from/ knotsBaromVisibWave heightAir tempDewpointWater temp
2018-Jul-20 08:00N 28°33' W 015°15'1 1.9
2018-Jul-20 07:30N 28°34' W 015°15'1 1.9
2018-Jul-20 07:00N 28°34' W 015°15'1 1.8
2018-Jul-20 06:30N 28°35' W 015°15'1 1.3
2018-Jul-20 06:00N 28°35' W 015°16'5 9.2
2018-Jul-20 05:30N 28°31' W 015°19'5 9.4
2018-Jul-20 05:00N 28°28' W 015°22'3 6.0
2018-Jul-20 04:30N 28°25' W 015°23'1 1.5
2018-Jul-20 03:59N 28°25' W 015°22'1 1.6
2018-Jul-20 03:30N 28°25' W 015°21'1 1.6
2018-Jul-20 03:00N 28°25' W 015°20'1 1.6
2018-Jul-20 02:31N 28°26' W 015°20'1 1.5
2018-Jul-20 02:01N 28°26' W 015°19'1 1.4
2018-Jul-20 01:30N 28°26' W 015°18'1 1.4
2018-Jul-20 01:00N 28°27' W 015°17'1 1.5
2018-Jul-20 00:30N 28°27' W 015°17'1 1.5
2018-Jul-20 00:01N 28°27' W 015°16'0 0.5
2018-Jul-19 23:31N 28°27' W 015°16'4 7.7
2018-Jul-19 23:01N 28°23' W 015°16'2 4.1
2018-Jul-19 22:30N 28°21' W 015°15'2 4.9
2018-Jul-19 22:00N 28°19' W 015°16'612.4
2018-Jul-19 21:30N 28°13' W 015°19'612.6
2018-Jul-19 21:00N 28°08' W 015°22'2 4.3
2018-Jul-19 20:30N 28°08' W 015°25'0 0.3
2018-Jul-19 19:59N 28°08' W 015°25'0 0.0
2018-Jul-19 19:29N 28°08' W 015°25'0 0.0
2018-Jul-19 18:59N 28°08' W 015°25'0 0.0
2018-Jul-19 18:29N 28°08' W 015°25'0 0.0
2018-Jul-19 17:59N 28°08' W 015°25'0 0.0
2018-Jul-19 17:29N 28°08' W 015°25'0 0.0
2018-Jul-19 16:50N 28°08' W 015°25'0 0.0
2018-Jul-19 16:20N 28°08' W 015°25'0 0.0
2018-Jul-19 15:53N 28°08' W 015°25'0 0.0
2018-Jul-19 15:23N 28°08' W 015°25'0 0.0
2018-Jul-19 14:53N 28°08' W 015°25'0 0.0
2018-Jul-19 13:53N 28°08' W 015°25'0 0.0
2018-Jul-19 13:05N 28°08' W 015°25'0 0.0
2018-Jul-19 12:50N 28°08' W 015°25'0 0.0
2018-Jul-19 12:26N 28°08' W 015°25'0 0.0
2018-Jul-19 11:53N 28°08' W 015°25'0 0.0
2018-Jul-19 11:26N 28°08' W 015°25'0 0.0
2018-Jul-19 10:53N 28°08' W 015°25'0 0.0
2018-Jul-19 10:26N 28°08' W 015°25'0 0.0
2018-Jul-19 09:59N 28°08' W 015°25'0 0.0
2018-Jul-19 09:29N 28°08' W 015°25'0 0.0
2018-Jul-19 08:59N 28°08' W 015°25'0 0.0
2018-Jul-19 08:29N 28°08' W 015°25'0 0.0
2018-Jul-19 07:59N 28°08' W 015°25'0 0.0
2018-Jul-19 07:29N 28°08' W 015°25'0 0.0
2018-Jul-19 06:59N 28°08' W 015°25'0 0.0
2018-Jul-19 06:29N 28°08' W 015°25'0 0.0
2018-Jul-19 05:59N 28°08' W 015°25'0 0.0
2018-Jul-19 05:29N 28°08' W 015°25'0 0.0
2018-Jul-19 04:59N 28°08' W 015°25'0 0.0
2018-Jul-19 04:29N 28°08' W 015°25'0 0.0
2018-Jul-19 03:59N 28°08' W 015°25'0 0.0
2018-Jul-19 03:29N 28°08' W 015°25'0 0.0
2018-Jul-19 02:59N 28°08' W 015°25'0 0.0
2018-Jul-19 02:20N 28°08' W 015°25'0 0.0
2018-Jul-19 01:53N 28°08' W 015°25'0 0.0
2018-Jul-19 01:23N 28°08' W 015°25'0 0.0
2018-Jul-19 00:53N 28°08' W 015°25'0 0.0
2018-Jul-19 00:23N 28°08' W 015°25'0 0.0
2018-Jul-18 23:53N 28°08' W 015°25'0 0.0
2018-Jul-18 23:23N 28°08' W 015°25'0 0.0
2018-Jul-18 22:56N 28°08' W 015°25'0 0.0
2018-Jul-18 22:26N 28°08' W 015°25'0 0.0
2018-Jul-18 21:56N 28°08' W 015°25'0 0.0
2018-Jul-18 21:26N 28°08' W 015°25'0 0.0
2018-Jul-18 20:56N 28°08' W 015°25'0 0.0
2018-Jul-18 20:26N 28°08' W 015°25'0 0.0
2018-Jul-18 19:59N 28°08' W 015°25'0 0.0
2018-Jul-18 19:29N 28°08' W 015°25'0 0.0
2018-Jul-18 18:59N 28°08' W 015°25'0 0.0
2018-Jul-18 18:29N 28°08' W 015°25'0 0.0
2018-Jul-18 17:59N 28°08' W 015°25'0 0.0
2018-Jul-18 17:29N 28°08' W 015°25'0 0.0
2018-Jul-18 16:56N 28°08' W 015°25'0 0.0
2018-Jul-18 16:29N 28°08' W 015°25'0 0.0
2018-Jul-18 15:59N 28°08' W 015°25'0 0.0
2018-Jul-18 15:29N 28°08' W 015°25'0 0.0
2018-Jul-18 14:59N 28°08' W 015°25'0 0.0
2018-Jul-18 14:29N 28°08' W 015°25'0 0.0
2018-Jul-18 13:29N 28°08' W 015°25'0 0.0
2018-Jul-18 12:50N 28°08' W 015°25'0 0.0
2018-Jul-18 12:17N 28°08' W 015°25'0 0.0
2018-Jul-18 11:38N 28°08' W 015°25'0 0.0
2018-Jul-18 11:23N 28°08' W 015°25'0 0.0
2018-Jul-18 10:23N 28°08' W 015°25'0 0.0
2018-Jul-18 09:53N 28°08' W 015°25'0 0.0
2018-Jul-18 09:23N 28°08' W 015°25'0 0.0
2018-Jul-18 08:56N 28°08' W 015°25'0 0.0
2018-Jul-18 08:23N 28°08' W 015°25'0 0.0
2018-Jul-18 07:56N 28°08' W 015°25'0 0.0
2018-Jul-18 07:26N 28°08' W 015°25'0 0.0
2018-Jul-18 06:56N 28°08' W 015°25'0 0.0
2018-Jul-18 06:29N 28°08' W 015°25'0 0.0
2018-Jul-18 05:59N 28°08' W 015°25'0 0.0
2018-Jul-18 05:29N 28°08' W 015°25'0 0.0
2018-Jul-18 04:59N 28°08' W 015°25'0 0.0
2018-Jul-18 04:29N 28°08' W 015°25'0 0.0
2018-Jul-18 03:59N 28°08' W 015°25'0 0.0
2018-Jul-18 03:29N 28°08' W 015°25'0 0.0
2018-Jul-18 02:59N 28°08' W 015°25'0 0.0
2018-Jul-18 02:29N 28°08' W 015°25'0 0.0
2018-Jul-18 01:59N 28°08' W 015°25'0 0.0
2018-Jul-18 01:29N 28°08' W 015°25'0 0.0
2018-Jul-18 00:59N 28°08' W 015°25'0 0.0
2018-Jul-18 00:29N 28°08' W 015°25'0 0.0
2018-Jul-17 23:59N 28°08' W 015°25'0 0.0
2018-Jul-17 23:20N 28°08' W 015°25'0 0.0
2018-Jul-17 22:50N 28°08' W 015°25'0 0.0
2018-Jul-17 22:20N 28°08' W 015°25'0 0.0
2018-Jul-17 21:53N 28°08' W 015°25'0 0.0
2018-Jul-17 21:23N 28°08' W 015°25'0 0.0
2018-Jul-17 20:53N 28°08' W 015°25'0 0.0
2018-Jul-17 20:20N 28°08' W 015°25'0 0.0
2018-Jul-17 19:53N 28°08' W 015°25'0 0.0
2018-Jul-17 19:23N 28°08' W 015°25'0 0.0
2018-Jul-17 18:56N 28°08' W 015°25'0 0.0
2018-Jul-17 18:26N 28°08' W 015°25'0 0.0
2018-Jul-17 17:56N 28°08' W 015°25'0 0.0
2018-Jul-17 17:26N 28°08' W 015°25'0 0.9
2018-Jul-17 17:00N 28°08' W 015°25'2 3.6
2018-Jul-17 16:30N 28°07' W 015°23'1 1.0
2018-Jul-17 16:00N 28°07' W 015°23'1 1.1
2018-Jul-17 15:29N 28°08' W 015°24'0 0.0
2018-Jul-17 14:43N 28°08' W 015°24'0 0.0
2018-Jul-17 14:28N 28°08' W 015°24'0 0.0
2018-Jul-17 13:58N 28°08' W 015°24'0 0.0
2018-Jul-17 13:28N 28°08' W 015°24'0 0.0
2018-Jul-17 12:46N 28°08' W 015°24'0 0.0
2018-Jul-17 12:28N 28°08' W 015°24'0 0.0
2018-Jul-17 11:58N 28°08' W 015°24'0 0.0
2018-Jul-17 11:28N 28°08' W 015°24'0 0.0
2018-Jul-17 10:58N 28°08' W 015°24'0 0.0
2018-Jul-17 10:20N 28°08' W 015°24'0 0.0
2018-Jul-17 09:50N 28°08' W 015°24'0 0.0
2018-Jul-17 09:19N 28°08' W 015°24'0 0.0
2018-Jul-17 08:53N 28°08' W 015°24'0 0.1
2018-Jul-17 08:23N 28°08' W 015°24'0 0.1
2018-Jul-17 07:52N 28°08' W 015°24'0 0.0
2018-Jul-17 07:23N 28°08' W 015°24'0 0.0
2018-Jul-17 06:52N 28°08' W 015°24'0 0.0
2018-Jul-17 06:22N 28°08' W 015°24'0 0.0
2018-Jul-17 05:56N 28°08' W 015°24'0 0.0
2018-Jul-17 05:26N 28°08' W 015°24'0 0.0
2018-Jul-17 04:56N 28°08' W 015°24'0 0.3
2018-Jul-17 04:26N 28°08' W 015°24'1 1.2
2018-Jul-17 04:00N 28°08' W 015°23'2 4.8
2018-Jul-17 03:30N 28°10' W 015°22'3 6.1
2018-Jul-17 03:00N 28°13' W 015°21'510.9
2018-Jul-17 02:30N 28°18' W 015°19'611.5
2018-Jul-17 02:00N 28°24' W 015°18'612.2
2018-Jul-17 01:30N 28°29' W 015°16'612.4
2018-Jul-17 01:00N 28°35' W 015°14'612.3
2018-Jul-17 00:29N 28°41' W 015°12'1212.2
2018-Jul-16 23:28N 28°53' W 015°08'612.1
2018-Jul-16 23:00N 28°59' W 015°06'612.4
2018-Jul-16 22:30N 29°05' W 015°04'612.2
2018-Jul-16 22:00N 29°11' W 015°02'612.3
2018-Jul-16 21:30N 29°17' W 015°00'612.3
2018-Jul-16 21:00N 29°23' W 014°58'812.6
2018-Jul-16 20:23N 29°30' W 014°56'612.7
2018-Jul-16 19:54N 29°36' W 014°54'812.5
2018-Jul-16 19:15N 29°44' W 014°52'312.3
2018-Jul-16 18:59N 29°47' W 014°51'1912.1
2018-Jul-16 17:27N 30°05' W 014°45'612.0
2018-Jul-16 16:57N 30°11' W 014°43'  
2018-Jul-12 20:42N 46°45' W 003°23'413.2
2018-Jul-12 20:24N 46°46' W 003°17'513.5
2018-Jul-12 20:00N 46°49' W 003°10'1313.8
2018-Jul-12 19:03N 46°55' W 002°53'113.5
2018-Jul-12 19:00N 46°55' W 002°52'713.5
2018-Jul-12 18:30N 46°59' W 002°44'713.3
2018-Jul-12 18:00N 47°02' W 002°36'713.4
2018-Jul-12 17:30N 47°04' W 002°27'510.1
2018-Jul-12 17:00N 47°08' W 002°22'712.0
2018-Jul-12 16:27N 47°14' W 002°16'612.4
2018-Jul-12 16:00N 47°17' W 002°10'3 0.3
2018-Jul-12 05:29N 47°18' W 002°06'0 0.0
2018-Jul-12 04:47N 47°18' W 002°06'0 0.0
2018-Jul-12 04:11N 47°18' W 002°06'0 0.0
2018-Jul-11 03:23N 47°18' W 002°06'  

Dump ship's entire track history